createdAt,value
2023-03-05T00:08:46.259Z,13.26
2023-03-05T00:28:52.156Z,14.84
2023-03-05T00:48:58.020Z,15.04
2023-03-05T01:09:03.891Z,15.47
2023-03-05T01:29:09.671Z,14.04
2023-03-05T01:49:15.523Z,15.91
2023-03-05T02:09:21.682Z,15.90
2023-03-05T02:29:33.855Z,16.42
2023-03-05T02:49:35.254Z,16.09
2023-03-05T03:09:31.813Z,16.29
2023-03-05T03:29:38.026Z,15.66
2023-03-05T03:49:49.692Z,16.47
2023-03-05T04:09:46.903Z,16.84
2023-03-05T04:30:31.517Z,15.95
2023-03-05T04:50:16.234Z,16.31
2023-03-05T05:10:07.265Z,16.06
2023-03-05T05:30:05.783Z,16.48
2023-03-05T06:10:14.261Z,17.18
2023-03-05T07:50:58.898Z,15.66
2023-03-05T08:10:52.812Z,14.62
2023-03-05T08:30:59.250Z,14.54
2023-03-05T08:51:05.188Z,15.01
2023-03-05T09:11:10.995Z,15.46
2023-03-05T09:31:19.579Z,16.09
2023-03-05T09:51:25.297Z,14.90
2023-03-05T10:11:31.110Z,14.16
2023-03-05T10:31:36.963Z,12.09
2023-03-05T10:51:42.703Z,14.95
2023-03-05T11:11:48.507Z,11.59
2023-03-05T11:31:54.281Z,8.76
2023-03-05T11:52:00.084Z,9.19
2023-03-05T12:12:05.870Z,8.27
2023-03-05T12:32:11.730Z,7.50
2023-03-05T12:52:17.522Z,7.33
2023-03-05T13:12:23.352Z,5.37
2023-03-05T13:32:29.126Z,4.59
2023-03-05T13:52:34.871Z,3.68
2023-03-05T14:12:40.714Z,3.52
2023-03-05T14:32:46.511Z,2.35
2023-03-05T14:52:52.361Z,2.33
2023-03-05T15:12:58.144Z,2.55
2023-03-05T15:33:04.090Z,2.50
2023-03-05T15:53:09.883Z,3.89
2023-03-05T16:13:15.655Z,4.17
2023-03-05T16:33:21.468Z,4.00
2023-03-05T16:53:27.275Z,3.24
2023-03-05T17:13:33.803Z,5.00
2023-03-05T17:33:39.627Z,3.69
2023-03-05T17:53:45.369Z,3.25
2023-03-05T18:13:51.206Z,5.65
2023-03-05T18:33:56.985Z,5.76
2023-03-05T18:54:02.809Z,9.34
2023-03-05T19:14:08.635Z,5.13
2023-03-05T19:34:14.425Z,5.32
2023-03-05T19:54:20.678Z,4.70
2023-03-05T20:14:26.437Z,4.20
2023-03-05T20:34:32.205Z,5.50
2023-03-05T20:54:38.018Z,5.23
2023-03-05T21:14:43.855Z,5.48
2023-03-05T21:34:49.636Z,5.52
2023-03-05T21:54:55.375Z,5.49
2023-03-05T22:15:01.154Z,5.99
2023-03-05T22:35:15.145Z,6.38
2023-03-05T22:55:12.688Z,6.92
2023-03-05T23:15:19.323Z,6.72
2023-03-05T23:35:27.677Z,6.51
2023-03-05T23:55:35.787Z,7.16
